createdAt,value
2023-03-18T00:17:07.535Z,976.6
2023-03-18T00:36:27.657Z,976.6
2023-03-18T00:55:48.540Z,976.8
2023-03-18T01:15:09.114Z,976.6
2023-03-18T01:34:27.126Z,976.6
2023-03-18T01:53:46.905Z,976.3
2023-03-18T02:13:08.271Z,976.5
2023-03-18T02:13:18.409Z,976.4
2023-03-18T02:32:36.611Z,976.2
2023-03-18T02:51:55.557Z,976.2
2023-03-18T03:11:14.620Z,976.3
2023-03-18T03:30:35.269Z,976.4
2023-03-18T03:49:54.977Z,976.6
2023-03-18T04:09:17.402Z,976.7
2023-03-18T04:28:35.253Z,976.8
2023-03-18T04:47:51.014Z,977.1
2023-03-18T05:07:14.163Z,977
2023-03-18T05:26:31.244Z,977.1
2023-03-18T05:45:49.547Z,977.1
2023-03-18T06:05:12.710Z,977.3
2023-03-18T06:24:29.543Z,977.5
2023-03-18T06:43:52.312Z,977.6
2023-03-18T07:03:14.921Z,977.7
2023-03-18T07:22:38.381Z,977.9
2023-03-18T07:42:00.997Z,978
2023-03-18T08:01:24.261Z,978.2
2023-03-18T08:20:47.330Z,978.3
2023-03-18T08:40:06.505Z,978.5
2023-03-18T08:59:42.295Z,978.4
2023-03-18T09:00:00.745Z,978.4
2023-03-18T09:00:36.985Z,978.4
2023-03-18T09:01:02.533Z,978.4
2023-03-18T09:19:40.420Z,978.4
2023-03-18T09:39:04.398Z,978.4
2023-03-18T09:58:19.044Z,978.2
2023-03-18T10:17:40.294Z,978.4
2023-03-18T10:36:59.103Z,978.4
2023-03-18T10:56:15.474Z,978.5
2023-03-18T11:15:36.041Z,978.4
2023-03-18T11:35:02.075Z,978.4
2023-03-18T11:54:20.528Z,978.5
2023-03-18T12:13:41.135Z,978.5
2023-03-18T12:32:59.658Z,978.5
2023-03-18T12:52:21.457Z,978.3
2023-03-18T13:11:40.193Z,978.2
2023-03-18T13:31:02.663Z,978
2023-03-18T13:50:24.238Z,977.9
2023-03-18T14:09:44.616Z,977.9
2023-03-18T14:29:02.887Z,977.9
2023-03-18T14:48:23.299Z,977.6
2023-03-18T15:07:44.128Z,977.5
2023-03-18T15:27:05.030Z,977.4
2023-03-18T15:46:24.405Z,977.4
2023-03-18T16:05:45.838Z,977.3
2023-03-18T16:25:06.824Z,977.5
2023-03-18T16:44:26.995Z,977.6
2023-03-18T17:03:46.783Z,977.8
2023-03-18T17:23:05.609Z,977.9
2023-03-18T17:42:23.781Z,978
2023-03-18T18:01:43.809Z,978.1
2023-03-18T18:21:05.174Z,978.2
2023-03-18T18:40:22.690Z,978.2
2023-03-18T18:59:40.787Z,978.4
2023-03-18T19:18:59.466Z,978.5
2023-03-18T19:38:19.112Z,978.5
2023-03-18T19:57:37.701Z,978.7
2023-03-18T20:16:56.773Z,978.8
2023-03-18T20:36:15.265Z,979
2023-03-18T20:55:36.160Z,979
2023-03-18T21:14:57.237Z,979.1
2023-03-18T21:34:15.678Z,979.1
2023-03-18T21:53:36.266Z,979
2023-03-18T22:12:54.286Z,979.1
2023-03-18T22:32:15.008Z,979
2023-03-18T22:51:34.769Z,979.1
2023-03-18T23:10:53.728Z,979
2023-03-18T23:30:23.622Z,979
2023-03-18T23:49:36.045Z,978.9
